Time;durP1;ratioP1;P1;durP2;ratioP2;P2;SDS_P1;SDS_P2;PMS_P1;PMS_P2;Temp;Humidity;BMP_temperature;BMP_pressure;BME280_temperature;BME280_humidity;BME280_pressure;Samples;Min_cycle;Max_cycle;Signal;HPM_P1;HPM_P2
2023/10/01 00:01:30;;;;;;;7.90;4.47;;;;;;;8.77;100.00;99425.81;6106084;19;20030;-73
2023/10/01 00:03:30;;;;;;;12.85;6.38;;;;;;;8.70;100.00;99420.06;6111272;19;20058;-73
2023/10/01 00:05:30;;;;;;;8.43;4.90;;;;;;;8.69;100.00;99426.72;6109952;19;20012;-72
2023/10/01 00:07:33;;;;;;;8.63;4.95;;;;;;;8.68;100.00;99422.31;6109070;19;20014;-72
2023/10/01 00:09:33;;;;;;;8.70;4.95;;;;;;;8.70;100.00;99426.38;6109598;19;19999;-72
2023/10/01 00:11:41;;;;;;;10.65;5.13;;;;;;;8.70;100.00;99422.81;6108089;19;20024;-73
2023/10/01 00:13:41;;;;;;;9.65;5.15;;;;;;;8.66;100.00;99421.88;6109585;19;20007;-73
2023/10/01 00:15:42;;;;;;;12.40;4.47;;;;;;;8.62;100.00;99432.00;6109172;19;20006;-72
2023/10/01 00:17:44;;;;;;;8.88;5.07;;;;;;;8.59;100.00;99443.69;6109292;19;20030;-72
2023/10/01 00:19:45;;;;;;;8.10;5.07;;;;;;;8.50;100.00;99440.22;6109142;19;20037;-72
2023/10/01 00:21:46;;;;;;;10.05;5.40;;;;;;;8.39;100.00;99445.38;6109044;19;20011;-73
2023/10/01 00:23:46;;;;;;;10.95;5.78;;;;;;;8.40;100.00;99445.03;6108220;19;20003;-73
2023/10/01 00:25:46;;;;;;;7.45;5.40;;;;;;;8.35;100.00;99436.97;6109339;19;20039;-72
2023/10/01 00:27:47;;;;;;;10.88;5.78;;;;;;;8.31;100.00;99451.75;6108795;19;20009;-73
2023/10/01 00:29:47;;;;;;;9.13;5.45;;;;;;;8.27;100.00;99446.09;6108874;19;20021;-72
2023/10/01 00:31:49;;;;;;;9.75;5.75;;;;;;;8.25;100.00;99444.81;6107841;19;20025;-73
2023/10/01 00:33:49;;;;;;;7.18;4.88;;;;;;;8.18;100.00;99443.41;6110109;19;20007;-73
2023/10/01 00:35:51;;;;;;;10.38;6.28;;;;;;;8.17;100.00;99449.28;6106154;19;20075;-73
2023/10/01 00:37:51;;;;;;;8.52;4.95;;;;;;;8.15;100.00;99448.81;6108572;19;20006;-72
2023/10/01 00:39:53;;;;;;;8.13;4.97;;;;;;;8.12;100.00;99439.28;6108218;19;20002;-72
2023/10/01 00:41:53;;;;;;;10.93;6.22;;;;;;;8.15;100.00;99437.78;6108726;19;20564;-72
2023/10/01 00:43:55;;;;;;;10.00;5.30;;;;;;;8.16;100.00;99445.72;6107696;19;20553;-72
2023/10/01 00:45:56;;;;;;;6.93;4.43;;;;;;;8.18;100.00;99431.59;6107139;19;20021;-72
2023/10/01 00:48:05;;;;;;;7.50;4.72;;;;;;;8.18;100.00;99428.81;6106492;19;20774;-72
2023/10/01 00:50:11;;;;;;;7.38;4.25;;;;;;;8.18;100.00;99434.34;6101871;19;20408;-73
2023/10/01 00:52:15;;;;;;;5.90;4.07;;;;;;;8.17;100.00;99424.47;6101389;19;20006;-72
2023/10/01 00:54:16;;;;;;;5.93;4.05;;;;;;;8.21;100.00;99425.41;6101468;19;20002;-72
2023/10/01 00:56:20;;;;;;;6.67;4.23;;;;;;;8.23;100.00;99422.31;6101657;19;20019;-73
2023/10/01 00:58:21;;;;;;;8.70;4.32;;;;;;;8.28;100.00;99419.34;6100464;19;20007;-73
2023/10/01 01:00:23;;;;;;;6.07;4.13;;;;;;;8.35;100.00;99422.38;6098458;19;20035;-73
2023/10/01 01:02:24;;;;;;;7.25;3.72;;;;;;;8.38;100.00;99418.94;6102056;19;20017;-72
2023/10/01 01:04:28;;;;;;;6.22;3.67;;;;;;;8.35;100.00;99414.91;6101371;19;20667;-73
2023/10/01 01:06:36;;;;;;;9.63;3.63;;;;;;;8.35;100.00;99414.91;6101437;19;20010;-72
2023/10/01 01:08:46;;;;;;;8.13;4.18;;;;;;;8.31;100.00;99413.94;6101479;19;20597;-72
2023/10/01 01:10:50;;;;;;;6.85;3.65;;;;;;;8.25;100.00;99420.81;6100243;19;20021;-73
2023/10/01 01:12:54;;;;;;;6.80;3.75;;;;;;;8.26;100.00;99405.06;6100882;19;20338;-73
2023/10/01 01:14:54;;;;;;;6.82;3.92;;;;;;;8.24;100.00;99404.63;6100472;19;20013;-73
2023/10/01 01:16:56;;;;;;;12.00;5.03;;;;;;;8.20;100.00;99399.00;6100944;19;20015;-73
2023/10/01 01:18:56;;;;;;;6.53;3.40;;;;;;;8.14;100.00;99400.34;6101766;19;20298;-72
2023/10/01 01:21:05;;;;;;;5.22;3.45;;;;;;;8.14;100.00;99398.38;6099600;19;20328;-72
2023/10/01 01:23:06;;;;;;;7.47;3.65;;;;;;;8.12;100.00;99394.38;6100896;19;20082;-72
2023/10/01 01:25:10;;;;;;;6.25;3.70;;;;;;;8.11;100.00;99398.28;6099754;19;20022;-72
2023/10/01 01:27:11;;;;;;;6.95;4.10;;;;;;;8.06;100.00;99393.75;6100937;19;20347;-72
2023/10/01 01:29:28;;;;;;;5.63;3.75;;;;;;;8.03;100.00;99397.22;6099622;19;20010;-72
2023/10/01 01:31:29;;;;;;;7.25;3.65;;;;;;;7.98;100.00;99396.59;6098312;19;20022;-72
2023/10/01 01:33:40;;;;;;;6.15;3.25;;;;;;;7.97;100.00;99400.50;6100075;19;20183;-72
2023/10/01 01:35:42;;;;;;;8.30;4.00;;;;;;;7.94;100.00;99399.22;6098758;19;20123;-72
2023/10/01 01:37:46;;;;;;;7.93;4.50;;;;;;;7.89;100.00;99397.50;6101130;19;20010;-72
2023/10/01 01:39:48;;;;;;;6.65;4.28;;;;;;;7.85;100.00;99390.22;6099281;19;20005;-73
2023/10/01 01:41:51;;;;;;;9.95;5.30;;;;;;;7.80;100.00;99384.94;6099932;19;20023;-73
2023/10/01 01:43:52;;;;;;;9.10;4.88;;;;;;;7.75;100.00;99387.88;6099743;19;20501;-72
2023/10/01 01:46:00;;;;;;;8.10;5.55;;;;;;;7.76;100.00;99378.47;6099488;19;20010;-72
2023/10/01 01:48:21;;;;;;;6.65;4.32;;;;;;;7.78;100.00;99377.03;6099308;19;20009;-73
2023/10/01 01:50:26;;;;;;;6.72;4.20;;;;;;;7.91;100.00;99379.81;5998211;19;2006465;-73
2023/10/01 01:52:26;;;;;;;10.23;4.60;;;;;;;7.95;100.00;99367.78;6106456;19;20078;-72
2023/10/01 01:54:29;;;;;;;7.47;3.97;;;;;;;8.00;100.00;99367.56;6107563;19;20050;-72
2023/10/01 01:56:39;;;;;;;12.35;4.45;;;;;;;8.06;100.00;99377.22;6107692;19;20498;-72
2023/10/01 01:58:41;;;;;;;7.75;3.97;;;;;;;8.09;100.00;99378.50;6107783;19;20011;-72
2023/10/01 02:03:10;;;;;;;6.63;3.60;;;;;;;8.15;100.00;99355.91;6108260;19;20026;-72
2023/10/01 02:05:10;;;;;;;6.32;3.72;;;;;;;8.23;100.00;99350.63;6106743;19;20006;-72
2023/10/01 02:07:11;;;;;;;9.27;4.30;;;;;;;8.24;100.00;99353.03;6107913;19;20082;-72
2023/10/01 02:09:14;;;;;;;9.55;4.35;;;;;;;8.24;100.00;99350.28;6106668;19;20018;-72
2023/10/01 02:11:16;;;;;;;14.25;4.38;;;;;;;8.22;100.00;99354.53;6106065;19;20013;-72
2023/10/01 02:13:19;;;;;;;7.13;4.28;;;;;;;8.20;100.00;99360.41;6107527;19;20343;-72
2023/10/01 02:15:19;;;;;;;9.25;5.07;;;;;;;8.19;100.00;99356.00;6107700;19;20035;-72
2023/10/01 02:17:22;;;;;;;8.95;5.07;;;;;;;8.21;100.00;99359.25;6107524;19;20022;-72
2023/10/01 02:19:23;;;;;;;;;;;;;;;8.22;100.00;99363.63;6107011;19;20023;-72
2023/10/01 02:23:43;;;;;;;9.77;5.32;;;;;;;8.22;100.00;99365.56;6108816;19;20032;-72
2023/10/01 02:25:46;;;;;;;7.65;4.60;;;;;;;8.20;100.00;99363.16;6105971;19;20006;-72
2023/10/01 02:28:06;;;;;;;8.13;4.75;;;;;;;8.16;100.00;99367.72;6107186;19;20038;-72
2023/10/01 02:30:16;;;;;;;11.00;5.57;;;;;;;8.18;100.00;99370.94;6105322;19;20031;-73
2023/10/01 02:32:17;;;;;;;11.50;6.22;;;;;;;8.15;100.00;99369.69;6105920;19;20081;-72
2023/10/01 02:34:19;;;;;;;10.75;5.05;;;;;;;8.12;100.00;99372.31;6105242;19;20003;-72
2023/10/01 02:36:23;;;;;;;11.57;5.90;;;;;;;8.13;100.00;99360.94;6107194;19;20014;-72
2023/10/01 02:38:45;;;;;;;10.23;5.55;;;;;;;8.13;100.00;99365.66;6106774;19;20014;-72
2023/10/01 02:40:48;;;;;;;11.93;5.53;;;;;;;8.12;100.00;99356.59;6104871;19;20070;-72
2023/10/01 02:42:49;;;;;;;10.00;5.65;;;;;;;8.11;100.00;99363.25;6107702;19;20007;-72
2023/10/01 02:44:53;;;;;;;7.47;5.18;;;;;;;8.09;100.00;99356.44;6107445;19;20010;-72
2023/10/01 02:46:58;;;;;;;9.48;5.00;;;;;;;8.04;100.00;99349.22;6104929;19;20001;-72
2023/10/01 02:48:59;;;;;;;8.10;4.75;;;;;;;8.01;100.00;99354.56;6106499;19;20009;-72
2023/10/01 02:51:15;;;;;;;8.80;5.22;;;;;;;7.99;100.00;99363.19;6105964;19;20003;-72
2023/10/01 02:53:20;;;;;;;7.80;4.82;;;;;;;8.01;100.00;99363.66;6106908;19;20007;-72
2023/10/01 02:55:26;;;;;;;8.15;5.20;;;;;;;8.00;100.00;99370.31;6106307;19;20013;-72
2023/10/01 02:57:27;;;;;;;10.50;5.28;;;;;;;8.04;100.00;99353.91;6106020;19;20021;-72
2023/10/01 02:59:28;;;;;;;7.60;5.10;;;;;;;8.08;100.00;99354.84;6106256;19;20054;-72
2023/10/01 03:01:29;;;;;;;9.32;5.03;;;;;;;8.09;100.00;99351.72;6105526;19;20023;-72
2023/10/01 03:03:32;;;;;;;8.55;4.65;;;;;;;8.11;100.00;99354.97;6106029;19;20019;-72
2023/10/01 03:05:36;;;;;;;9.73;4.82;;;;;;;8.14;100.00;99351.53;6105535;19;20492;-72
2023/10/01 03:07:39;;;;;;;7.45;4.85;;;;;;;8.15;100.00;99358.66;6106593;19;20094;-72
2023/10/01 03:09:40;;;;;;;8.23;4.60;;;;;;;8.10;100.00;99364.38;6105215;19;20094;-72
2023/10/01 03:11:42;;;;;;;7.30;4.70;;;;;;;8.09;100.00;99356.44;6109256;19;20381;-72
2023/10/01 03:13:46;;;;;;;8.38;4.68;;;;;;;8.09;100.00;99357.25;6112073;19;20007;-72
2023/10/01 03:16:39;;;;;;;7.00;5.43;;;;;;;8.11;100.00;99360.50;6111999;19;20102;-73
2023/10/01 03:18:55;;;;;;;7.03;4.43;;;;;;;8.10;100.00;99358.06;6109494;19;20014;-72
2023/10/01 03:22:39;;;;;;;7.28;4.65;;;;;;;8.14;100.00;99348.78;6112348;19;20006;-72
2023/10/01 03:24:46;;;;;;;8.57;4.80;;;;;;;8.15;100.00;99341.31;6111752;19;20025;-72
2023/10/01 03:26:46;;;;;;;9.25;4.70;;;;;;;8.13;100.00;99347.16;6112312;19;20007;-72
2023/10/01 03:31:09;;;;;;;8.10;4.53;;;;;;;7.98;100.00;99360.78;6110052;19;20079;-72
2023/10/01 03:33:15;;;;;;;9.75;5.60;;;;;;;7.90;100.00;99354.22;6111964;19;20041;-72
2023/10/01 03:35:20;;;;;;;11.02;5.95;;;;;;;7.85;100.00;99365.44;6108571;19;20514;-72
2023/10/01 03:37:23;;;;;;;8.18;4.80;;;;;;;7.78;100.00;99359.69;6112464;19;20030;-72
2023/10/01 03:39:25;;;;;;;7.68;4.82;;;;;;;7.74;100.00;99367.00;6110261;19;20014;-73
2023/10/01 03:41:27;;;;;;;8.52;4.85;;;;;;;7.68;100.00;99371.91;6110290;19;20023;-73
2023/10/01 03:43:37;;;;;;;9.73;5.13;;;;;;;7.66;100.00;99368.69;6110561;19;20097;-72
2023/10/01 03:45:39;;;;;;;8.00;5.20;;;;;;;7.65;100.00;99369.81;6110218;19;20014;-72
2023/10/01 03:47:41;;;;;;;21.48;6.78;;;;;;;7.64;100.00;99365.47;6111585;19;20115;-72
2023/10/01 03:49:44;;;;;;;12.32;5.70;;;;;;;7.69;100.00;99365.25;6111342;19;20482;-72
2023/10/01 03:51:58;;;;;;;7.82;5.30;;;;;;;7.69;100.00;99368.00;6109905;19;20022;-72
2023/10/01 03:54:03;;;;;;;8.75;5.43;;;;;;;7.69;100.00;99365.25;6110098;19;20332;-72
2023/10/01 03:56:04;;;;;;;9.15;5.25;;;;;;;7.70;100.00;99360.56;6110817;19;20013;-72
2023/10/01 03:58:18;;;;;;;;;;;;;;;7.75;100.00;99358.38;6111763;19;20335;-72
2023/10/01 04:02:46;;;;;;;9.80;5.60;;;;;;;7.71;100.00;99351.97;6111437;19;20021;-72
2023/10/01 04:04:58;;;;;;;9.70;4.68;;;;;;;7.73;100.00;99343.34;6110856;19;20011;-72
2023/10/01 04:07:02;;;;;;;5.82;4.70;;;;;;;7.69;100.00;99353.41;6111537;19;20003;-72
2023/10/01 04:09:06;;;;;;;10.95;5.03;;;;;;;7.65;100.00;99347.00;6110800;19;20030;-72
2023/10/01 04:11:11;;;;;;;12.18;5.70;;;;;;;7.61;100.00;99341.34;6110020;19;20006;-72
2023/10/01 04:13:12;;;;;;;7.95;5.47;;;;;;;7.63;100.00;99352.03;6110894;19;20013;-72
2023/10/01 04:15:27;;;;;;;10.55;5.38;;;;;;;7.58;100.00;99353.84;6109660;19;20074;-72
2023/10/01 04:17:35;;;;;;;9.25;4.85;;;;;;;7.63;100.00;99355.59;6110898;19;20006;-72
2023/10/01 04:19:36;;;;;;;11.23;6.05;;;;;;;7.66;100.00;99352.16;6110289;19;20010;-73
2023/10/01 04:21:37;;;;;;;9.95;5.15;;;;;;;7.70;100.00;99368.81;6109143;19;20467;-72
2023/10/01 04:23:40;;;;;;;8.90;5.25;;;;;;;7.75;100.00;99361.16;6107089;19;20415;-72
2023/10/01 04:25:43;;;;;;;12.20;5.50;;;;;;;7.77;100.00;99364.34;6110302;19;20015;-72
2023/10/01 04:27:45;;;;;;;10.52;5.32;;;;;;;7.83;100.00;99359.47;6111433;19;20013;-72
2023/10/01 04:29:47;;;;;;;7.00;5.25;;;;;;;7.88;100.00;99353.75;6109842;19;20017;-72
2023/10/01 04:31:52;;;;;;;9.95;5.07;;;;;;;7.94;100.00;99359.84;6109402;19;20458;-72
2023/10/01 04:33:54;;;;;;;7.30;4.68;;;;;;;7.98;100.00;99360.78;6109171;19;20266;-72
2023/10/01 04:35:55;;;;;;;7.22;4.05;;;;;;;7.99;100.00;99354.13;6109084;19;20021;-72
2023/10/01 04:37:56;;;;;;;11.40;5.38;;;;;;;7.99;100.00;99348.59;6110121;19;20443;-72
2023/10/01 04:39:57;;;;;;;13.20;5.53;;;;;;;8.00;100.00;99348.25;6109611;19;20368;-72
2023/10/01 04:41:59;;;;;;;9.82;4.53;;;;;;;7.98;100.00;99355.28;6107492;19;20002;-72
2023/10/01 04:44:06;;;;;;;7.50;4.88;;;;;;;7.99;100.00;99356.88;6110597;19;20003;-72
2023/10/01 04:46:08;;;;;;;7.68;4.75;;;;;;;7.97;100.00;99359.19;6108371;19;20062;-72
2023/10/01 04:48:24;;;;;;;;;;;;;;;7.92;100.00;99353.88;6110646;19;20010;-72
2023/10/01 04:50:29;;;;;;;10.05;4.82;;;;;;;7.89;100.00;99361.66;6096227;19;20310;-72
2023/10/01 04:52:31;;;;;;;9.93;4.90;;;;;;;7.89;100.00;99347.91;6108612;19;20021;-72
2023/10/01 04:54:32;;;;;;;8.77;4.78;;;;;;;7.89;100.00;99352.59;6110247;19;20009;-72
2023/10/01 04:56:32;;;;;;;7.90;4.72;;;;;;;7.88;100.00;99360.06;6109064;19;20003;-72
2023/10/01 04:58:36;;;;;;;14.70;7.30;;;;;;;7.87;100.00;99354.91;6109628;19;20025;-72
2023/10/01 05:00:37;;;;;;;10.35;4.60;;;;;;;7.87;100.00;99352.13;6107346;19;20345;-72
2023/10/01 05:02:43;;;;;;;8.88;5.10;;;;;;;7.88;100.00;99354.56;6109246;19;20281;-72
2023/10/01 05:04:43;;;;;;;11.68;4.97;;;;;;;7.90;100.00;99351.44;6109016;19;20046;-72
2023/10/01 05:06:59;;;;;;;10.82;4.43;;;;;;;7.92;100.00;99349.16;6108459;19;20006;-72
2023/10/01 05:09:00;;;;;;;9.63;5.45;;;;;;;7.96;100.00;99352.06;6108594;19;20327;-72
2023/10/01 05:11:00;;;;;;;9.02;4.95;;;;;;;8.02;100.00;99357.00;6108712;19;20011;-73
2023/10/01 05:13:02;;;;;;;7.90;4.28;;;;;;;8.07;100.00;99365.06;6109137;19;20014;-72
2023/10/01 05:15:17;;;;;;;11.15;6.07;;;;;;;8.13;100.00;99371.16;6108472;19;20010;-72
2023/10/01 05:17:17;;;;;;;11.98;4.70;;;;;;;8.21;100.00;99369.47;6110175;19;20003;-72
2023/10/01 05:19:23;;;;;;;10.23;4.97;;;;;;;8.26;100.00;99366.47;6107846;19;20058;-72
2023/10/01 05:21:27;;;;;;;9.93;4.40;;;;;;;8.33;100.00;99370.28;6107303;19;20026;-73
2023/10/01 05:23:27;;;;;;;7.95;4.18;;;;;;;8.39;100.00;99376.44;6109584;19;20367;-73
2023/10/01 05:25:31;;;;;;;19.20;4.70;;;;;;;8.40;100.00;99373.31;6108425;19;20006;-72
2023/10/01 05:27:31;;;;;;;9.38;3.78;;;;;;;8.46;100.00;99370.38;6108505;19;20606;-72
2023/10/01 05:29:34;;;;;;;9.43;4.20;;;;;;;8.49;100.00;99369.66;6108229;19;20007;-72
2023/10/01 05:31:39;;;;;;;10.10;5.05;;;;;;;8.53;100.00;99376.94;6107215;19;20010;-72
2023/10/01 05:33:42;;;;;;;7.53;3.70;;;;;;;8.56;100.00;99376.22;6108594;19;20042;-72
2023/10/01 05:35:47;;;;;;;10.85;4.50;;;;;;;8.57;100.00;99385.31;6106534;19;20003;-73
2023/10/01 05:37:49;;;;;;;11.68;4.97;;;;;;;8.60;100.00;99384.63;6108464;19;20040;-72
2023/10/01 05:39:55;;;;;;;5.30;3.53;;;;;;;8.66;100.00;99392.31;6108237;19;20003;-73
2023/10/01 05:41:57;;;;;;;7.57;3.75;;;;;;;8.71;100.00;99394.06;6107342;19;20472;-72
2023/10/01 05:44:01;;;;;;;8.93;3.60;;;;;;;8.72;100.00;99388.19;6107533;19;20010;-72
2023/10/01 05:46:02;;;;;;;6.55;3.47;;;;;;;8.74;100.00;99387.84;6107264;19;20271;-73
2023/10/01 05:48:02;;;;;;;8.52;3.90;;;;;;;8.79;100.00;99395.91;6108233;19;20335;-72
2023/10/01 05:50:08;;;;;;;9.18;4.25;;;;;;;8.81;100.00;99390.84;6100956;19;20483;-72
2023/10/01 05:52:09;;;;;;;6.20;3.90;;;;;;;8.84;100.00;99390.16;6101676;19;19999;-73
2023/10/01 05:54:11;;;;;;;10.88;3.90;;;;;;;8.87;100.00;99385.91;6100619;19;20029;-73
2023/10/01 05:56:15;;;;;;;7.07;3.55;;;;;;;8.89;100.00;99398.22;6101684;19;20014;-73
2023/10/01 05:58:19;;;;;;;9.40;4.40;;;;;;;8.93;100.00;99399.13;6099036;19;20618;-73
2023/10/01 06:00:26;;;;;;;6.28;3.60;;;;;;;8.95;100.00;99402.38;6099181;19;20003;-73
2023/10/01 06:02:42;;;;;;;5.85;3.45;;;;;;;8.99;100.00;99385.91;6100322;19;19999;-73
2023/10/01 06:04:42;;;;;;;12.48;4.30;;;;;;;9.03;100.00;99400.66;6099784;19;20033;-73
2023/10/01 06:06:42;;;;;;;5.13;3.38;;;;;;;9.03;100.00;99388.78;6100916;19;20038;-73
2023/10/01 06:08:49;;;;;;;14.13;3.92;;;;;;;9.08;100.00;99396.81;6100415;19;20445;-72
2023/10/01 06:11:04;;;;;;;6.43;2.97;;;;;;;9.09;100.00;99398.44;6099017;19;20006;-73
2023/10/01 06:13:06;;;;;;;8.82;3.95;;;;;;;9.07;100.00;99395.22;6101119;19;20010;-73
2023/10/01 06:15:11;;;;;;;6.97;3.47;;;;;;;9.07;100.00;99386.94;6100909;19;20688;-73
2023/10/01 06:17:12;;;;;;;7.07;3.83;;;;;;;9.04;100.00;99384.88;6101321;19;20010;-73
2023/10/01 06:19:14;;;;;;;11.75;4.32;;;;;;;9.04;100.00;99393.16;6100107;19;20019;-72
2023/10/01 06:21:16;;;;;;;6.00;3.65;;;;;;;9.00;100.00;99388.31;6100082;19;20319;-73
2023/10/01 06:23:25;;;;;;;6.15;3.60;;;;;;;9.00;100.00;99387.50;6100850;19;20013;-73
2023/10/01 06:25:40;;;;;;;8.98;3.55;;;;;;;9.00;100.00;99390.28;6100185;19;20006;-73
2023/10/01 06:27:40;;;;;;;9.57;4.43;;;;;;;8.98;100.00;99387.88;6098879;19;20014;-73
2023/10/01 06:29:50;;;;;;;9.60;3.58;;;;;;;8.95;100.00;99388.56;6099664;19;20463;-73
2023/10/01 06:32:02;;;;;;;10.93;5.97;;;;;;;9.00;100.00;99390.28;6099089;19;20010;-73
2023/10/01 06:34:04;;;;;;;7.90;5.05;;;;;;;9.01;100.00;99380.84;6096706;19;20015;-72
2023/10/01 06:36:21;;;;;;;9.73;4.40;;;;;;;9.04;100.00;99377.41;6097612;19;20055;-72
2023/10/01 06:38:21;;;;;;;10.75;4.13;;;;;;;9.10;100.00;99384.31;6099943;19;20030;-73
2023/10/01 06:40:30;;;;;;;7.30;3.70;;;;;;;9.15;100.00;99377.72;6098281;19;20006;-73
2023/10/01 06:42:33;;;;;;;12.85;3.88;;;;;;;9.24;100.00;99379.22;6099465;19;20532;-73
2023/10/01 06:44:33;;;;;;;7.00;3.90;;;;;;;9.34;100.00;99383.44;6100142;19;20013;-72
2023/10/01 06:46:34;;;;;;;12.73;4.32;;;;;;;9.40;100.00;99373.78;6102640;19;20458;-73
2023/10/01 06:48:35;;;;;;;7.28;3.85;;;;;;;9.51;100.00;99365.81;6104922;19;20495;-73
2023/10/01 06:50:46;;;;;;;7.63;3.20;;;;;;;9.61;100.00;99370.06;6106762;19;20006;-73
2023/10/01 06:52:46;;;;;;;8.73;3.42;;;;;;;9.73;100.00;99379.09;6112470;19;20007;-73
2023/10/01 06:54:47;;;;;;;7.55;3.50;;;;;;;9.85;100.00;99373.56;6113257;19;20007;-73
2023/10/01 06:56:47;;;;;;;6.47;3.30;;;;;;;10.01;100.00;99381.91;6112174;19;20362;-73
2023/10/01 07:01:34;;;;;;;7.38;3.53;;;;;;;10.32;100.00;99385.91;6110671;19;20006;-72
2023/10/01 07:03:30;;;;;;;8.55;4.07;;;;;;;10.48;100.00;99380.41;6111502;19;20359;-73
2023/10/01 07:05:30;;;;;;;7.47;4.30;;;;;;;10.63;100.00;99387.91;6110050;19;20010;-73
2023/10/01 07:07:31;;;;;;;9.73;5.15;;;;;;;10.79;100.00;99380.41;6111962;19;20026;-73
2023/10/01 07:09:34;;;;;;;9.15;4.10;;;;;;;10.93;100.00;99400.16;6110471;19;20555;-73
2023/10/01 07:11:34;;;;;;;8.00;4.45;;;;;;;11.09;100.00;99391.84;6110573;19;20014;-73
2023/10/01 07:13:35;;;;;;;11.73;4.10;;;;;;;11.21;100.00;99397.25;6111123;19;20014;-73
2023/10/01 07:15:39;;;;;;;12.63;4.10;;;;;;;11.32;100.00;99396.69;6112415;19;20091;-73
2023/10/01 07:17:41;;;;;;;8.55;4.38;;;;;;;11.41;100.00;99400.88;6110327;19;20379;-73
2023/10/01 07:19:42;;;;;;;11.35;4.93;;;;;;;11.55;100.00;99394.84;6111461;19;20013;-73
2023/10/01 07:21:45;;;;;;;12.05;4.78;;;;;;;11.63;100.00;99385.53;6110101;19;20013;-73
2023/10/01 07:23:46;;;;;;;;;;;;;;;11.72;100.00;99388.09;6113048;19;20018;-73
2023/10/01 07:25:47;;;;;;;10.40;4.93;;;;;;;11.77;100.00;99396.94;6111543;19;19992;-73
2023/10/01 07:27:47;;;;;;;6.57;4.30;;;;;;;11.86;100.00;99388.44;6111844;19;20035;-73
2023/10/01 07:29:52;;;;;;;15.20;4.20;;;;;;;11.91;100.00;99390.09;6111224;19;20010;-73
2023/10/01 07:31:53;;;;;;;10.38;4.65;;;;;;;12.07;100.00;99390.81;6109637;19;20009;-72
2023/10/01 07:33:55;;;;;;;7.90;4.32;;;;;;;12.16;100.00;99394.16;6109943;19;20338;-73
2023/10/01 07:36:01;;;;;;;10.60;4.70;;;;;;;12.25;100.00;99393.97;6109101;19;20014;-72
2023/10/01 07:38:02;;;;;;;7.68;4.57;;;;;;;12.38;100.00;99395.41;6107649;19;20011;-73
2023/10/01 07:40:09;;;;;;;8.82;4.68;;;;;;;12.56;100.00;99409.59;6109683;19;20002;-72
2023/10/01 07:42:10;;;;;;;8.38;4.68;;;;;;;12.74;100.00;99402.38;6110411;19;20328;-72
2023/10/01 07:44:12;;;;;;;8.48;4.32;;;;;;;12.94;100.00;99409.50;6111519;19;20066;-72
2023/10/01 07:46:18;;;;;;;7.80;4.55;;;;;;;13.17;100.00;99401.16;6108223;19;20384;-72
2023/10/01 07:48:18;;;;;;;11.55;4.53;;;;;;;13.43;100.00;99413.47;6111421;19;20418;-72
2023/10/01 07:50:19;;;;;;;8.90;4.43;;;;;;;13.58;100.00;99408.94;6110425;19;20070;-72
2023/10/01 07:52:19;;;;;;;11.52;5.05;;;;;;;13.63;100.00;99411.38;6110171;19;20002;-72
2023/10/01 07:54:22;;;;;;;9.75;5.10;;;;;;;13.69;100.00;99409.88;6110460;19;19999;-73
2023/10/01 07:56:23;;;;;;;10.07;4.63;;;;;;;13.69;100.00;99407.88;6110885;19;20013;-72
2023/10/01 07:58:24;;;;;;;11.50;5.03;;;;;;;13.73;100.00;99399.56;6108312;19;20351;-72
2023/10/01 08:00:28;;;;;;;8.57;4.68;;;;;;;13.78;100.00;99400.06;6110478;19;20271;-72
2023/10/01 08:02:32;;;;;;;6.90;4.10;;;;;;;13.88;100.00;99398.59;6108116;19;20022;-73
2023/10/01 08:06:49;;;;;;;10.23;4.72;;;;;;;14.11;100.00;99386.56;6110674;19;20014;-72
2023/10/01 08:08:57;;;;;;;8.10;4.03;;;;;;;14.21;100.00;99385.88;6111112;19;20022;-73
2023/10/01 08:10:57;;;;;;;9.52;4.40;;;;;;;14.29;100.00;99384.78;6110682;19;20021;-73
2023/10/01 08:13:05;;;;;;;6.68;3.67;;;;;;;14.36;100.00;99387.63;6112122;19;20015;-73
2023/10/01 08:15:29;;;;;;;11.32;5.18;;;;;;;14.51;100.00;99381.06;6111045;19;20026;-73
2023/10/01 08:17:32;;;;;;;;;;;;;;;14.55;100.00;99390.25;6111838;19;20322;-73
2023/10/01 08:19:56;;;;;;;8.80;4.32;;;;;;;14.65;100.00;99388.78;6109788;19;19910;-73
2023/10/01 08:22:13;;;;;;;7.35;4.25;;;;;;;14.77;100.00;99384.88;6109194;19;20335;-72
2023/10/01 08:24:18;;;;;;;6.32;4.10;;;;;;;14.86;100.00;99385.38;6007614;19;2006320;-72
2023/10/01 08:28:43;;;;;;;7.43;4.35;;;;;;;15.14;100.00;99388.41;6110948;19;20505;-73
2023/10/01 08:30:44;;;;;;;8.98;3.80;;;;;;;15.20;100.00;99386.03;6108991;19;20007;-72
2023/10/01 08:33:18;;;;;;;7.28;3.70;;;;;;;15.31;100.00;99391.72;6110845;19;20443;-72
2023/10/01 08:35:06;;;;;;;7.35;3.53;;;;;;;15.33;100.00;99378.19;6108700;19;20814;-73
2023/10/01 08:37:06;;;;;;;8.32;4.65;;;;;;;15.36;100.00;99386.56;6110791;19;20010;-73
2023/10/01 08:39:33;;;;;;;7.95;4.30;;;;;;;15.39;100.00;99390.53;6110480;19;20038;-72
2023/10/01 08:41:56;;;;;;;9.40;4.22;;;;;;;15.54;100.00;99386.66;6110087;19;20014;-72
2023/10/01 08:44:10;;;;;;;10.90;5.05;;;;;;;15.59;100.00;99382.72;6109064;19;20043;-73
2023/10/01 08:46:17;;;;;;;9.85;4.43;;;;;;;15.68;100.00;99397.94;6106512;19;20007;-73
2023/10/01 08:48:17;;;;;;;5.85;4.18;;;;;;;15.70;100.00;99395.56;6109466;19;20063;-73
2023/10/01 08:50:26;;;;;;;9.55;4.45;;;;;;;15.74;100.00;99398.38;6107392;19;20415;-73
2023/10/01 08:52:30;;;;;;;6.32;3.83;;;;;;;15.84;100.00;99388.47;6109927;19;20018;-73
2023/10/01 08:54:31;;;;;;;7.80;4.00;;;;;;;16.11;100.00;99391.75;6108164;19;20391;-73
2023/10/01 08:56:32;;;;;;;7.63;4.18;;;;;;;16.20;100.00;99392.97;6109457;19;20002;-72
2023/10/01 08:58:48;;;;;;;6.55;3.70;;;;;;;16.36;100.00;99386.25;6108552;19;20031;-72
2023/10/01 09:00:52;;;;;;;7.88;4.38;;;;;;;16.47;100.00;99389.88;6107778;19;19999;-73
2023/10/01 09:03:10;;;;;;;7.63;3.80;;;;;;;16.47;100.00;99393.47;6108961;19;19998;-73
2023/10/01 09:05:12;;;;;;;7.40;3.95;;;;;;;16.46;100.00;99391.06;6108063;19;20249;-72
2023/10/01 09:07:20;;;;;;;8.68;4.47;;;;;;;16.43;100.00;99383.47;6108969;19;20007;-73
2023/10/01 09:09:21;;;;;;;10.65;4.18;;;;;;;16.48;100.00;99385.91;6107501;19;20014;-73
2023/10/01 09:11:47;;;;;;;9.82;3.72;;;;;;;16.70;100.00;99381.94;6107630;19;20026;-73
2023/10/01 09:16:11;;;;;;;10.40;4.20;;;;;;;16.90;100.00;99382.38;6107637;19;20019;-72
2023/10/01 09:18:11;;;;;;;6.93;3.92;;;;;;;16.96;100.00;99377.97;6107957;19;19999;-72
2023/10/01 09:20:17;;;;;;;8.55;3.75;;;;;;;16.90;100.00;99381.59;6107232;19;19999;-73
2023/10/01 09:22:40;;;;;;;9.98;3.63;;;;;;;16.92;100.00;99385.56;6108618;19;19999;-73
2023/10/01 09:24:42;;;;;;;6.15;3.22;;;;;;;16.90;100.00;99390.78;6107923;19;20029;-72
2023/10/01 09:26:42;;;;;;;6.55;3.47;;;;;;;16.94;100.00;99376.78;6109098;19;20046;-73
2023/10/01 09:28:43;;;;;;;5.95;3.20;;;;;;;16.97;100.00;99384.41;6108301;19;20006;-72
2023/10/01 09:31:28;;;;;;;8.15;4.07;;;;;;;17.07;100.00;99391.97;6105994;19;20010;-73
2023/10/01 09:33:31;;;;;;;7.65;3.58;;;;;;;17.17;100.00;99385.56;6106492;19;20013;-73
2023/10/01 09:36:00;;;;;;;6.78;3.30;;;;;;;17.16;100.00;99370.00;6107230;19;20003;-73
2023/10/01 09:38:10;;;;;;;7.25;3.20;;;;;;;17.22;100.00;99370.41;6108644;19;21201;-72
2023/10/01 09:40:32;;;;;;;7.05;3.60;;;;;;;17.26;100.00;99379.56;6107861;19;20015;-72
2023/10/01 09:42:44;;;;;;;6.22;3.35;;;;;;;17.27;100.00;99381.97;6108694;19;20014;-72
2023/10/01 09:44:47;;;;;;;6.05;3.53;;;;;;;17.41;100.00;99370.75;6106929;19;20066;-73
2023/10/01 09:46:49;;;;;;;7.93;3.72;;;;;;;17.44;100.00;99380.34;6107163;19;20006;-73
2023/10/01 09:49:00;;;;;;;9.80;3.28;;;;;;;17.48;99.68;99385.94;6108117;19;20410;-73
2023/10/01 09:51:13;;;;;;;6.93;3.75;;;;;;;17.58;100.00;99385.91;6106029;19;20342;-72
2023/10/01 09:53:20;;;;;;;10.02;4.40;;;;;;;17.61;98.44;99387.91;6107346;19;20011;-73
2023/10/01 09:55:29;;;;;;;7.50;3.45;;;;;;;17.64;99.01;99383.50;6108776;19;20007;-72
2023/10/01 09:57:34;;;;;;;6.22;3.00;;;;;;;17.73;96.45;99385.91;6105707;19;19999;-73
2023/10/01 09:59:39;;;;;;;8.75;3.78;;;;;;;17.70;97.29;99387.50;6107611;19;20007;-72
2023/10/01 10:01:42;;;;;;;7.40;3.65;;;;;;;17.67;100.00;99379.91;6106357;19;20003;-73
2023/10/01 10:03:43;;;;;;;7.82;3.58;;;;;;;17.64;98.11;99380.72;6107707;19;20489;-72
2023/10/01 10:05:46;;;;;;;9.65;3.75;;;;;;;17.62;98.52;99371.91;6107751;19;20010;-73